Flight Track Log - Related Links

Times and Time Zones

All times are in EDT time to prevent confusion due to time zone crossing. See the UAL759 flight status page for this flight to view local times or setup timezone preferences in your user account.

Time Position Orientation Groundspeed Altitude Reporting Facility
EDT Latitude Longitude Course Direction KTS MPH feet Rate Location/Type
Sun 08:08:53 AM 40.6500 -74.1833 304° West 192 221 1,100  Level New York TRACON
Sun 08:11:00 AM 40.9502 -74.4693 316° Northwest  Level FlightAware Approximate
Sun 08:11:19 AM 40.7000 -74.3186 296° West 177 204 8,000  Level New York Center
Sun 08:12:00 AM 41.0358 -74.5793 316° Northwest  Level FlightAware Approximate
Sun 08:12:20 AM 40.7650 -74.3739 327° Northwest 228 262 10,500  Level New York Center
Sun 08:13:00 AM 41.1233 -74.6833 North  Level FlightAware Approximate
Sun 08:13:18 AM 40.8461 -74.4414 328° Northwest 301 346 12,100  Level New York Center
Sun 08:14:00 AM 41.1799 -74.8098 304° West  Level FlightAware Approximate
Sun 08:14:18 AM 40.9208 -74.5169 323° Northwest 356 410 14,300  Level New York Center
Sun 08:15:19 AM 40.9942 -74.6364 309° West 369 425 16,700 1,967 Climbing New York Center
Sun 08:16:20 AM 41.0611 -74.7531 307° West 389 448 18,300 1,686 Climbing New York Center
Sun 08:17:20 AM 41.1200 -74.8556 307° West 403 464 20,100 1,780 Climbing New York Center
Sun 08:18:18 AM 41.1906 -74.9811 307° West 408 470 21,800 1,576 Climbing New York Center
Sun 08:19:18 AM 41.2633 -75.1072 308° West 419 482 23,200 1,475 Climbing New York Center
Sun 08:20:20 AM 41.3356 -75.2361 307° West 424 488 24,800 1,600 Climbing New York Center
Sun 08:21:18 AM 41.4136 -75.3686 308° West 438 504 26,400 1,361 Climbing New York Center
Sun 08:22:19 AM 41.4933 -75.5153 306° West 443 510 27,500 1,388 Climbing New York Center
Sun 08:23:19 AM 41.5322 -75.6842 287° West 455 524 29,200 1,664 Climbing New York Center
Sun 08:24:18 AM 41.5764 -75.8233 293° West 455 524 30,800 1,513 Climbing New York Center
Sun 08:25:18 AM 41.6217 -75.9794 291° West 460 529 32,200 1,400 Climbing New York Center
Sun 08:26:18 AM 41.6667 -76.1383 291° West 460 529 33,600 1,377 Climbing New York Center
Sun 08:27:20 AM 41.7072 -76.2972 289° West 455 524 35,000 1,182 Climbing New York Center
Sun 08:29:36 AM 41.8031 -76.6497 290° West 438 504 37,500 918 Climbing Cleveland Center
Sun 08:30:36 AM 41.8478 -76.8031 291° West 438 504 38,000 250 Climbing Cleveland Center
Sun 08:31:36 AM 41.8881 -76.9569 289° West 438 504 38,000  Level Cleveland Center
Sun 08:32:36 AM 41.9325 -77.1108 291° West 438 504 38,000  Level Cleveland Center
Sun 08:33:36 AM 41.9747 -77.2678 290° West 438 504 38,000  Level Cleveland Center
Sun 08:34:36 AM 42.0167 -77.4219 290° West 438 504 38,000  Level Cleveland Center
Sun 08:35:36 AM 42.0564 -77.5794 289° West 438 504 38,000  Level Cleveland Center
Sun 08:36:36 AM 42.0978 -77.7372 290° West 438 504 38,000  Level Cleveland Center
Sun 08:37:36 AM 42.1369 -77.8922 289° West 438 504 38,000  Level Cleveland Center
Sun 08:38:36 AM 42.1781 -78.0475 290° West 438 504 38,000  Level Cleveland Center
Sun 08:39:36 AM 42.2189 -78.2028 290° West 438 504 38,000  Level Cleveland Center
Sun 08:40:36 AM 42.2575 -78.3614 288° West 438 504 38,000  Level Cleveland Center
Sun 08:41:36 AM 42.2981 -78.5197 289° West 438 504 38,000  Level Cleveland Center
Sun 08:42:36 AM 42.3403 -78.6758 290° West 438 504 38,000  Level Cleveland Center
Sun 08:43:36 AM 42.3781 -78.8319 288° West 438 504 38,000  Level Cleveland Center
Sun 08:44:36 AM 42.4200 -78.9883 290° West 438 504 38,000  Level Cleveland Center
Sun 08:45:36 AM 42.4597 -79.1478 289° West 438 504 38,000  Level Cleveland Center
Sun 08:46:36 AM 42.4928 -79.3133 285° West 443 510 38,000  Level Cleveland Center
Sun 08:47:36 AM 42.5050 -79.4819 276° West 449 517 38,000  Level Cleveland Center
Sun 08:48:36 AM 42.5086 -79.6508 272° West 449 517 38,000  Level Cleveland Center
Sun 08:49:36 AM 42.5181 -79.8197 274° West 449 517 38,000  Level Cleveland Center
Sun 08:50:36 AM 42.5256 -80.0056 273° West 454 522 38,000  Level Cleveland Center
Sun 08:51:36 AM 42.5325 -80.1775 273° West 454 522 38,000  Level Cleveland Center
Sun 08:52:36 AM 42.5392 -80.3436 273° West 454 522 38,000  Level Cleveland Center
Sun 08:53:36 AM 42.5456 -80.5156 273° West 459 528 38,000  Level Cleveland Center
Sun 08:54:36 AM 42.5519 -80.6817 273° West 454 522 38,000  Level Cleveland Center
Sun 08:55:36 AM 42.5600 -80.8511 274° West 454 522 38,000  Level Cleveland Center
Sun 08:56:36 AM 42.5656 -81.0172 273° West 454 522 38,000  Level Cleveland Center
Sun 08:57:36 AM 42.5692 -81.1922 272° West 459 528 38,000  Level Cleveland Center
Sun 08:58:36 AM 42.5764 -81.3586 273° West 454 522 38,000  Level Cleveland Center
Sun 08:59:36 AM 42.5939 -81.5253 278° West 454 522 38,000  Level Cleveland Center
Sun 09:00:36 AM 42.6236 -81.6919 284° West 454 522 38,000  Level Cleveland Center
Sun 09:01:36 AM 42.6511 -81.8506 283° West 449 517 38,000  Level Cleveland Center
Sun 09:02:36 AM 42.6828 -82.0122 285° West 444 511 38,000  Level Cleveland Center
Sun 09:03:36 AM 42.7117 -82.1825 283° West 450 518 38,000  Level Cleveland Center
Sun 09:04:36 AM 42.7406 -82.3472 283° West 455 524 38,000  Level Cleveland Center
Sun 09:05:36 AM 42.7567 -82.5203 277° West 455 524 38,000  Level Cleveland Center
Sun 09:06:36 AM 42.7661 -82.6903 274° West 455 524 38,000 -400 Level Cleveland Center
Sun 09:07:36 AM 42.7794 -82.8603 276° West 455 524 37,200 -1,100 Descending Cleveland Center
Sun 09:08:36 AM 42.7925 -83.0333 276° West 455 524 35,800 -1,400 Descending Cleveland Center
Sun 09:09:36 AM 42.8075 -83.2094 277° West 466 536 34,400 -1,350 Descending Cleveland Center
Sun 09:10:36 AM 42.8181 -83.3856 275° West 466 536 33,100 -700 Descending Cleveland Center
Sun 09:11:36 AM 42.8300 -83.5672 275° West 471 542 33,000 -50 Descending Cleveland Center
Sun 09:12:36 AM 42.8400 -83.7433 274° West 476 548 33,000  Level Cleveland Center
Sun 09:13:36 AM 42.8514 -83.9253 275° West 482 555 33,000  Level Cleveland Center
Sun 09:14:36 AM 42.8586 -84.1042 273° West 482 555 33,000  Level Cleveland Center
Sun 09:15:36 AM 42.8678 -84.2831 274° West 482 555 33,000  Level Cleveland Center
Sun 09:16:29 AM 42.8764 -84.4247 275° West 477 549 33,000  Level Chicago Center
Sun 09:17:30 AM 42.8731 -84.6047 269° West 477 549 33,000 -244 Level Chicago Center
Sun 09:18:32 AM 42.8561 -84.7822 263° West 474 545 32,500 -484 Descending Chicago Center
Sun 09:19:34 AM 42.8408 -84.9622 263° West 477 549 32,000 -244 Descending Chicago Center
Sun 09:20:35 AM 42.8231 -85.1436 262° West 483 556 32,000 -341 Level Chicago Center
Sun 09:21:37 AM 42.8017 -85.3606 262° West 483 556 31,300 -968 Descending Chicago Center
Sun 09:22:39 AM 42.7800 -85.5431 261° West 484 557 30,000 -1,659 Descending Chicago Center
Sun 09:23:40 AM 42.7467 -85.7228 256° West 487 560 27,900 -2,293 Descending Chicago Center
Sun 09:24:42 AM 42.7150 -85.8964 256° West 477 549 25,300 -2,516 Descending Chicago Center
Sun 09:25:44 AM 42.6842 -86.0667 256° West 465 535 22,700 -2,439 Descending Chicago Center
Sun 09:26:45 AM 42.6542 -86.2311 256° West 452 520 20,300 -2,146 Descending Chicago Center
Sun 09:27:47 AM 42.6253 -86.3847 256° West 425 489 18,300 -1,645 Descending Chicago Center
Sun 09:28:49 AM 42.5969 -86.5339 256° West 411 473 16,900 -1,561 Descending Chicago Center
Sun 09:29:50 AM 42.5697 -86.6786 256° West 398 458 15,100 -1,951 Descending Chicago Center
Sun 09:30:52 AM 42.5308 -86.8450 252° West 385 443 12,900 -1,935 Descending Chicago Center
Sun 09:31:54 AM 42.4933 -86.9781 249° West 379 436 11,100 -1,161 Descending Chicago Center
Sun 09:32:56 AM 42.4581 -87.0989 248° West 348 400 10,500 -683 Descending Chicago Center
Sun 09:33:57 AM 42.4272 -87.2058 249° West 308 354 9,700 -780 Descending Chicago Center
Sun 09:34:59 AM 42.3881 -87.2972 240° Southwest 285 328 8,900 -629 Descending Chicago Center
Sun 09:36:01 AM 42.3492 -87.4058 244° Southwest 280 322 8,400 -532 Descending Chicago Center
Sun 09:37:03 AM 42.3117 -87.4972 241° Southwest 281 323 7,800 -629 Descending Chicago Center
Sun 09:38:05 AM 42.2761 -87.5894 243° Southwest 279 321 7,100 -780 Descending Chicago Center
Sun 09:39:06 AM 42.2222 -87.6475 219° Southwest 250 288 6,200 -878 Descending Chicago Center
Sun 09:40:08 AM 42.1758 -87.6986 219° Southwest 218 251 5,300 -774 Descending Chicago Center
Sun 09:41:10 AM 42.1322 -87.7469 219° Southwest 209 241 4,600 -677 Descending Chicago Center

Login

Don't have an account? Register now (free) for customized features, flight alerts, and more!